sensor_id;sensor_type;location;lat;lon;timestamp;temperature;humidity
52181;DHT22;38158;53.338;6.514;2023-02-27T00:02:14;2.50;99.90
52181;DHT22;38158;53.338;6.514;2023-02-27T00:04:39;2.50;99.90
52181;DHT22;38158;53.338;6.514;2023-02-27T00:07:05;2.50;99.90
52181;DHT22;38158;53.338;6.514;2023-02-27T00:09:31;2.90;99.90
52181;DHT22;38158;53.338;6.514;2023-02-27T00:11:58;2.50;99.90
52181;DHT22;38158;53.338;6.514;2023-02-27T00:14:23;2.50;99.90
52181;DHT22;38158;53.338;6.514;2023-02-27T00:16:49;2.50;99.90
52181;DHT22;38158;53.338;6.514;2023-02-27T00:19:15;2.70;99.90
52181;DHT22;38158;53.338;6.514;2023-02-27T00:21:41;2.50;99.90
52181;DHT22;38158;53.338;6.514;2023-02-27T00:24:09;2.50;99.90
52181;DHT22;38158;53.338;6.514;2023-02-27T00:26:35;2.60;99.90
52181;DHT22;38158;53.338;6.514;2023-02-27T00:29:03;2.60;99.90
52181;DHT22;38158;53.338;6.514;2023-02-27T00:31:28;3.70;99.90
52181;DHT22;38158;53.338;6.514;2023-02-27T00:33:54;2.60;99.90
52181;DHT22;38158;53.338;6.514;2023-02-27T00:36:20;2.60;99.90
52181;DHT22;38158;53.338;6.514;2023-02-27T00:38:45;2.90;99.90
52181;DHT22;38158;53.338;6.514;2023-02-27T00:41:11;2.60;99.90
52181;DHT22;38158;53.338;6.514;2023-02-27T00:43:37;2.60;99.90
52181;DHT22;38158;53.338;6.514;2023-02-27T00:46:02;2.60;99.90
52181;DHT22;38158;53.338;6.514;2023-02-27T00:48:28;2.60;99.90
52181;DHT22;38158;53.338;6.514;2023-02-27T00:50:54;2.50;99.90
52181;DHT22;38158;53.338;6.514;2023-02-27T00:53:20;2.50;99.90
52181;DHT22;38158;53.338;6.514;2023-02-27T00:55:45;2.50;99.90
52181;DHT22;38158;53.338;6.514;2023-02-27T00:58:11;3.50;99.90
52181;DHT22;38158;53.338;6.514;2023-02-27T01:00:37;2.40;99.90
52181;DHT22;38158;53.338;6.514;2023-02-27T01:03:02;2.30;99.90
52181;DHT22;38158;53.338;6.514;2023-02-27T01:05:28;2.50;99.90
52181;DHT22;38158;53.338;6.514;2023-02-27T01:07:54;2.10;99.90
52181;DHT22;38158;53.338;6.514;2023-02-27T01:10:20;2.00;99.90
52181;DHT22;38158;53.338;6.514;2023-02-27T01:12:45;1.90;99.90
52181;DHT22;38158;53.338;6.514;2023-02-27T01:15:11;1.90;99.90
52181;DHT22;38158;53.338;6.514;2023-02-27T01:17:37;1.90;99.90
52181;DHT22;38158;53.338;6.514;2023-02-27T01:20:04;1.80;99.90
52181;DHT22;38158;53.338;6.514;2023-02-27T01:22:30;1.80;99.90
52181;DHT22;38158;53.338;6.514;2023-02-27T01:24:58;2.00;99.90
52181;DHT22;38158;53.338;6.514;2023-02-27T01:27:24;1.70;99.90
52181;DHT22;38158;53.338;6.514;2023-02-27T01:29:49;1.70;99.90
52181;DHT22;38158;53.338;6.514;2023-02-27T01:32:15;2.10;99.90
52181;DHT22;38158;53.338;6.514;2023-02-27T01:34:41;1.60;99.90
52181;DHT22;38158;53.338;6.514;2023-02-27T01:37:07;1.60;99.90
52181;DHT22;38158;53.338;6.514;2023-02-27T01:39:33;1.60;99.90
52181;DHT22;38158;53.338;6.514;2023-02-27T01:41:59;1.50;99.90
52181;DHT22;38158;53.338;6.514;2023-02-27T01:44:27;1.50;99.90
52181;DHT22;38158;53.338;6.514;2023-02-27T01:46:53;1.40;99.90
52181;DHT22;38158;53.338;6.514;2023-02-27T01:49:32;1.50;99.90
52181;DHT22;38158;53.338;6.514;2023-02-27T01:52:05;1.40;99.90
52181;DHT22;38158;53.338;6.514;2023-02-27T01:54:35;1.80;99.90
52181;DHT22;38158;53.338;6.514;2023-02-27T01:57:03;1.30;99.90
52181;DHT22;38158;53.338;6.514;2023-02-27T01:59:32;2.30;99.90
52181;DHT22;38158;53.338;6.514;2023-02-27T02:01:57;1.20;99.90
52181;DHT22;38158;53.338;6.514;2023-02-27T02:04:27;1.20;99.90
52181;DHT22;38158;53.338;6.514;2023-02-27T02:07:07;1.20;99.90
52181;DHT22;38158;53.338;6.514;2023-02-27T02:09:38;2.00;99.90
52181;DHT22;38158;53.338;6.514;2023-02-27T02:12:05;1.50;99.90
52181;DHT22;38158;53.338;6.514;2023-02-27T02:14:31;1.10;99.90
52181;DHT22;38158;53.338;6.514;2023-02-27T02:46:12;1.30;99.90
52181;DHT22;38158;53.338;6.514;2023-02-27T02:48:48;1.30;99.90
52181;DHT22;38158;53.338;6.514;2023-02-27T02:54:42;2.00;99.90
52181;DHT22;38158;53.338;6.514;2023-02-27T02:57:25;1.40;99.90
52181;DHT22;38158;53.338;6.514;2023-02-27T02:59:56;1.70;99.90
52181;DHT22;38158;53.338;6.514;2023-02-27T03:02:32;1.50;99.90
52181;DHT22;38158;53.338;6.514;2023-02-27T03:05:04;1.80;99.90
52181;DHT22;38158;53.338;6.514;2023-02-27T03:07:38;1.60;99.90
52181;DHT22;38158;53.338;6.514;2023-02-27T03:12:36;1.70;99.90
52181;DHT22;38158;53.338;6.514;2023-02-27T03:17:50;1.80;99.90
52181;DHT22;38158;53.338;6.514;2023-02-27T03:20:41;1.80;99.90
52181;DHT22;38158;53.338;6.514;2023-02-27T03:23:14;1.80;99.90
52181;DHT22;38158;53.338;6.514;2023-02-27T03:25:43;1.90;99.90
52181;DHT22;38158;53.338;6.514;2023-02-27T03:28:15;1.90;99.90
52181;DHT22;38158;53.338;6.514;2023-02-27T03:34:07;1.90;99.90
52181;DHT22;38158;53.338;6.514;2023-02-27T03:40:05;1.90;99.90
52181;DHT22;38158;53.338;6.514;2023-02-27T03:42:35;1.70;99.90
52181;DHT22;38158;53.338;6.514;2023-02-27T03:45:08;1.90;99.90
52181;DHT22;38158;53.338;6.514;2023-02-27T03:47:39;1.60;99.90
52181;DHT22;38158;53.338;6.514;2023-02-27T03:50:05;1.60;99.90
52181;DHT22;38158;53.338;6.514;2023-02-27T03:52:31;1.40;99.90
52181;DHT22;38158;53.338;6.514;2023-02-27T03:55:16;2.00;99.90
52181;DHT22;38158;53.338;6.514;2023-02-27T03:57:43;2.00;99.90
52181;DHT22;38158;53.338;6.514;2023-02-27T04:00:14;1.30;99.90
52181;DHT22;38158;53.338;6.514;2023-02-27T04:02:41;1.30;99.90
52181;DHT22;38158;53.338;6.514;2023-02-27T04:05:08;1.60;99.90
52181;DHT22;38158;53.338;6.514;2023-02-27T04:07:36;1.20;99.90
52181;DHT22;38158;53.338;6.514;2023-02-27T04:25:04;1.10;99.90
52181;DHT22;38158;53.338;6.514;2023-02-27T04:28:10;1.30;99.90
52181;DHT22;38158;53.338;6.514;2023-02-27T04:30:43;0.90;99.90
52181;DHT22;38158;53.338;6.514;2023-02-27T04:35:57;0.90;99.90
52181;DHT22;38158;53.338;6.514;2023-02-27T04:38:48;0.80;99.90
52181;DHT22;38158;53.338;6.514;2023-02-27T04:41:20;1.00;99.90
52181;DHT22;38158;53.338;6.514;2023-02-27T04:43:47;1.20;99.90
52181;DHT22;38158;53.338;6.514;2023-02-27T04:46:16;0.80;99.90
52181;DHT22;38158;53.338;6.514;2023-02-27T04:48:59;1.60;99.90
52181;DHT22;38158;53.338;6.514;2023-02-27T04:51:35;1.60;99.90
52181;DHT22;38158;53.338;6.514;2023-02-27T04:54:11;0.70;99.90
52181;DHT22;38158;53.338;6.514;2023-02-27T04:56:48;0.70;99.90
52181;DHT22;38158;53.338;6.514;2023-02-27T04:59:23;0.70;99.90
52181;DHT22;38158;53.338;6.514;2023-02-27T05:01:57;0.70;99.90
52181;DHT22;38158;53.338;6.514;2023-02-27T05:04:26;1.30;99.90
52181;DHT22;38158;53.338;6.514;2023-02-27T05:06:54;1.30;99.90
52181;DHT22;38158;53.338;6.514;2023-02-27T05:09:30;0.60;99.90
52181;DHT22;38158;53.338;6.514;2023-02-27T05:12:11;1.30;99.90
52181;DHT22;38158;53.338;6.514;2023-02-27T05:14:48;0.50;99.90
52181;DHT22;38158;53.338;6.514;2023-02-27T05:17:25;0.40;99.90
52181;DHT22;38158;53.338;6.514;2023-02-27T05:19:54;0.90;99.90
52181;DHT22;38158;53.338;6.514;2023-02-27T05:22:29;1.80;99.90
52181;DHT22;38158;53.338;6.514;2023-02-27T05:27:56;1.10;99.90
52181;DHT22;38158;53.338;6.514;2023-02-27T05:35:54;0.40;99.90
52181;DHT22;38158;53.338;6.514;2023-02-27T05:41:02;0.90;99.90
52181;DHT22;38158;53.338;6.514;2023-02-27T05:43:57;0.30;99.90
52181;DHT22;38158;53.338;6.514;2023-02-27T05:46:26;0.70;99.90
52181;DHT22;38158;53.338;6.514;2023-02-27T05:49:00;1.20;99.90
52181;DHT22;38158;53.338;6.514;2023-02-27T05:51:31;0.30;99.90
52181;DHT22;38158;53.338;6.514;2023-02-27T05:54:01;0.30;99.90
52181;DHT22;38158;53.338;6.514;2023-02-27T05:56:28;1.40;99.90
52181;DHT22;38158;53.338;6.514;2023-02-27T05:59:05;0.20;99.90
52181;DHT22;38158;53.338;6.514;2023-02-27T06:01:33;0.30;99.90
52181;DHT22;38158;53.338;6.514;2023-02-27T06:03:59;1.40;99.90
52181;DHT22;38158;53.338;6.514;2023-02-27T06:06:25;0.20;99.90
52181;DHT22;38158;53.338;6.514;2023-02-27T06:08:50;0.20;99.90
52181;DHT22;38158;53.338;6.514;2023-02-27T06:11:16;0.20;99.90
52181;DHT22;38158;53.338;6.514;2023-02-27T06:13:42;0.20;99.90
52181;DHT22;38158;53.338;6.514;2023-02-27T06:16:12;0.60;99.90
52181;DHT22;38158;53.338;6.514;2023-02-27T06:18:39;0.30;99.90
52181;DHT22;38158;53.338;6.514;2023-02-27T06:21:04;0.30;99.90
52181;DHT22;38158;53.338;6.514;2023-02-27T06:23:31;1.60;99.90
52181;DHT22;38158;53.338;6.514;2023-02-27T06:25:56;0.40;99.90
52181;DHT22;38158;53.338;6.514;2023-02-27T06:28:22;0.20;99.90
52181;DHT22;38158;53.338;6.514;2023-02-27T06:30:53;1.40;99.90
52181;DHT22;38158;53.338;6.514;2023-02-27T06:33:19;0.70;99.90
52181;DHT22;38158;53.338;6.514;2023-02-27T06:35:47;1.30;99.90
52181;DHT22;38158;53.338;6.514;2023-02-27T06:38:13;0.30;99.90
52181;DHT22;38158;53.338;6.514;2023-02-27T06:40:39;1.60;99.90
52181;DHT22;38158;53.338;6.514;2023-02-27T06:43:05;0.30;99.90
52181;DHT22;38158;53.338;6.514;2023-02-27T06:45:30;1.10;99.90
52181;DHT22;38158;53.338;6.514;2023-02-27T06:47:56;0.30;99.90
52181;DHT22;38158;53.338;6.514;2023-02-27T06:50:22;0.30;99.90
52181;DHT22;38158;53.338;6.514;2023-02-27T06:52:47;0.40;99.90
52181;DHT22;38158;53.338;6.514;2023-02-27T06:55:13;0.40;99.90
52181;DHT22;38158;53.338;6.514;2023-02-27T06:57:44;0.40;99.90
52181;DHT22;38158;53.338;6.514;2023-02-27T07:00:11;0.50;99.90
52181;DHT22;38158;53.338;6.514;2023-02-27T07:02:37;0.50;99.90
52181;DHT22;38158;53.338;6.514;2023-02-27T07:05:03;0.60;99.90
52181;DHT22;38158;53.338;6.514;2023-02-27T07:07:28;0.60;99.90
52181;DHT22;38158;53.338;6.514;2023-02-27T07:09:55;0.90;99.90
52181;DHT22;38158;53.338;6.514;2023-02-27T07:12:20;0.60;99.90
52181;DHT22;38158;53.338;6.514;2023-02-27T07:14:46;1.90;99.90
52181;DHT22;38158;53.338;6.514;2023-02-27T07:17:12;0.60;99.90
52181;DHT22;38158;53.338;6.514;2023-02-27T07:19:38;1.30;99.90
52181;DHT22;38158;53.338;6.514;2023-02-27T07:22:03;0.60;99.90
52181;DHT22;38158;53.338;6.514;2023-02-27T07:24:29;0.70;99.90
52181;DHT22;38158;53.338;6.514;2023-02-27T07:26:55;0.70;99.90
52181;DHT22;38158;53.338;6.514;2023-02-27T07:29:21;0.60;99.90
52181;DHT22;38158;53.338;6.514;2023-02-27T07:31:46;1.60;99.90
52181;DHT22;38158;53.338;6.514;2023-02-27T07:34:12;0.70;99.90
52181;DHT22;38158;53.338;6.514;2023-02-27T07:36:39;0.60;99.90
52181;DHT22;38158;53.338;6.514;2023-02-27T07:39:05;0.90;99.90
52181;DHT22;38158;53.338;6.514;2023-02-27T07:41:33;0.90;99.90
52181;DHT22;38158;53.338;6.514;2023-02-27T07:43:58;0.70;99.90
52181;DHT22;38158;53.338;6.514;2023-02-27T07:46:24;1.20;99.90
52181;DHT22;38158;53.338;6.514;2023-02-27T07:48:52;0.80;99.90
52181;DHT22;38158;53.338;6.514;2023-02-27T07:51:18;0.90;99.90
52181;DHT22;38158;53.338;6.514;2023-02-27T07:53:44;1.00;99.90
52181;DHT22;38158;53.338;6.514;2023-02-27T07:56:09;1.20;99.90
52181;DHT22;38158;53.338;6.514;2023-02-27T07:58:35;1.20;99.90
52181;DHT22;38158;53.338;6.514;2023-02-27T08:01:00;1.30;99.90
52181;DHT22;38158;53.338;6.514;2023-02-27T08:03:26;1.40;99.90
52181;DHT22;38158;53.338;6.514;2023-02-27T08:05:52;1.50;99.90
52181;DHT22;38158;53.338;6.514;2023-02-27T08:08:18;2.70;99.90
52181;DHT22;38158;53.338;6.514;2023-02-27T08:10:43;1.70;99.90
52181;DHT22;38158;53.338;6.514;2023-02-27T08:13:09;1.80;99.90
52181;DHT22;38158;53.338;6.514;2023-02-27T08:15:35;1.90;99.90
52181;DHT22;38158;53.338;6.514;2023-02-27T08:18:00;2.00;99.90
52181;DHT22;38158;53.338;6.514;2023-02-27T08:20:26;2.00;99.90
52181;DHT22;38158;53.338;6.514;2023-02-27T08:22:52;2.20;99.90
52181;DHT22;38158;53.338;6.514;2023-02-27T08:25:17;2.60;99.90
52181;DHT22;38158;53.338;6.514;2023-02-27T08:27:44;2.40;99.90
52181;DHT22;38158;53.338;6.514;2023-02-27T08:30:11;2.60;99.90
52181;DHT22;38158;53.338;6.514;2023-02-27T08:32:37;2.60;99.90
52181;DHT22;38158;53.338;6.514;2023-02-27T08:35:04;2.70;99.90
52181;DHT22;38158;53.338;6.514;2023-02-27T08:37:30;2.70;99.90
52181;DHT22;38158;53.338;6.514;2023-02-27T08:39:56;2.80;99.90
52181;DHT22;38158;53.338;6.514;2023-02-27T08:42:21;2.90;99.90
52181;DHT22;38158;53.338;6.514;2023-02-27T08:44:47;3.00;99.90
52181;DHT22;38158;53.338;6.514;2023-02-27T08:47:15;3.10;99.90
52181;DHT22;38158;53.338;6.514;2023-02-27T08:49:40;3.60;99.90
52181;DHT22;38158;53.338;6.514;2023-02-27T08:52:06;3.50;99.90
52181;DHT22;38158;53.338;6.514;2023-02-27T08:54:37;3.50;99.90
52181;DHT22;38158;53.338;6.514;2023-02-27T08:57:03;3.60;99.90
52181;DHT22;38158;53.338;6.514;2023-02-27T08:59:29;3.70;99.90
52181;DHT22;38158;53.338;6.514;2023-02-27T09:01:56;3.80;99.90
52181;DHT22;38158;53.338;6.514;2023-02-27T09:04:22;3.90;99.90
52181;DHT22;38158;53.338;6.514;2023-02-27T09:06:48;4.00;99.90
52181;DHT22;38158;53.338;6.514;2023-02-27T09:09:13;4.80;99.90
52181;DHT22;38158;53.338;6.514;2023-02-27T09:11:39;4.20;99.90
52181;DHT22;38158;53.338;6.514;2023-02-27T09:14:06;4.20;99.90
52181;DHT22;38158;53.338;6.514;2023-02-27T09:16:32;4.40;99.90
52181;DHT22;38158;53.338;6.514;2023-02-27T09:18:57;4.50;99.90
52181;DHT22;38158;53.338;6.514;2023-02-27T09:21:23;4.60;99.90
52181;DHT22;38158;53.338;6.514;2023-02-27T09:23:51;4.80;99.90
52181;DHT22;38158;53.338;6.514;2023-02-27T09:26:17;4.90;99.90
52181;DHT22;38158;53.338;6.514;2023-02-27T09:28:43;5.00;99.90
52181;DHT22;38158;53.338;6.514;2023-02-27T09:31:09;5.00;99.90
52181;DHT22;38158;53.338;6.514;2023-02-27T09:33:36;5.10;99.90
52181;DHT22;38158;53.338;6.514;2023-02-27T09:36:03;5.20;99.90
52181;DHT22;38158;53.338;6.514;2023-02-27T09:38:31;5.30;99.90
52181;DHT22;38158;53.338;6.514;2023-02-27T09:40:57;5.40;99.90
52181;DHT22;38158;53.338;6.514;2023-02-27T09:45:54;5.60;99.90
52181;DHT22;38158;53.338;6.514;2023-02-27T09:50:55;5.70;99.90
52181;DHT22;38158;53.338;6.514;2023-02-27T09:53:39;5.80;99.90
52181;DHT22;38158;53.338;6.514;2023-02-27T09:56:26;5.70;99.90
52181;DHT22;38158;53.338;6.514;2023-02-27T10:15:49;6.30;99.90
52181;DHT22;38158;53.338;6.514;2023-02-27T10:18:57;6.30;99.90
52181;DHT22;38158;53.338;6.514;2023-02-27T10:21:35;6.40;99.90
52181;DHT22;38158;53.338;6.514;2023-02-27T10:24:27;6.50;99.90
52181;DHT22;38158;53.338;6.514;2023-02-27T10:26:59;6.50;99.90
52181;DHT22;38158;53.338;6.514;2023-02-27T10:29:33;6.50;99.90
52181;DHT22;38158;53.338;6.514;2023-02-27T10:34:54;6.50;99.90
52181;DHT22;38158;53.338;6.514;2023-02-27T10:37:24;6.50;99.90
52181;DHT22;38158;53.338;6.514;2023-02-27T10:39:56;6.60;99.90
52181;DHT22;38158;53.338;6.514;2023-02-27T10:42:26;6.60;99.90
52181;DHT22;38158;53.338;6.514;2023-02-27T10:44:54;6.70;99.90
52181;DHT22;38158;53.338;6.514;2023-02-27T10:47:22;6.70;99.90
52181;DHT22;38158;53.338;6.514;2023-02-27T10:49:50;6.80;99.90
52181;DHT22;38158;53.338;6.514;2023-02-27T10:52:16;7.00;99.90
52181;DHT22;38158;53.338;6.514;2023-02-27T10:54:44;6.80;99.90
52181;DHT22;38158;53.338;6.514;2023-02-27T10:57:30;6.90;99.90
52181;DHT22;38158;53.338;6.514;2023-02-27T11:00:04;6.80;99.90
52181;DHT22;38158;53.338;6.514;2023-02-27T11:02:41;6.80;99.90
52181;DHT22;38158;53.338;6.514;2023-02-27T11:05:31;6.90;99.90
52181;DHT22;38158;53.338;6.514;2023-02-27T11:08:19;7.00;99.90
52181;DHT22;38158;53.338;6.514;2023-02-27T11:11:12;7.00;99.90
52181;DHT22;38158;53.338;6.514;2023-02-27T11:13:40;7.10;99.90
52181;DHT22;38158;53.338;6.514;2023-02-27T11:16:10;7.20;99.90
52181;DHT22;38158;53.338;6.514;2023-02-27T11:18:44;7.20;99.90
52181;DHT22;38158;53.338;6.514;2023-02-27T11:21:28;7.30;99.90
52181;DHT22;38158;53.338;6.514;2023-02-27T11:24:00;7.30;99.90
52181;DHT22;38158;53.338;6.514;2023-02-27T11:29:05;7.50;99.90
52181;DHT22;38158;53.338;6.514;2023-02-27T11:31:33;7.50;99.90
52181;DHT22;38158;53.338;6.514;2023-02-27T11:34:00;7.50;99.90
52181;DHT22;38158;53.338;6.514;2023-02-27T11:39:05;7.60;99.90
52181;DHT22;38158;53.338;6.514;2023-02-27T11:41:32;7.60;99.90
52181;DHT22;38158;53.338;6.514;2023-02-27T11:44:01;7.60;99.90
52181;DHT22;38158;53.338;6.514;2023-02-27T11:46:27;8.80;99.90
52181;DHT22;38158;53.338;6.514;2023-02-27T11:49:26;7.60;99.90
52181;DHT22;38158;53.338;6.514;2023-02-27T11:52:12;7.70;99.90
52181;DHT22;38158;53.338;6.514;2023-02-27T11:54:53;7.70;99.90
52181;DHT22;38158;53.338;6.514;2023-02-27T11:57:24;7.80;99.90
52181;DHT22;38158;53.338;6.514;2023-02-27T12:10:19;8.00;99.90
52181;DHT22;38158;53.338;6.514;2023-02-27T12:15:47;8.00;99.90
52181;DHT22;38158;53.338;6.514;2023-02-27T12:21:17;7.80;99.90
52181;DHT22;38158;53.338;6.514;2023-02-27T12:24:13;7.80;99.90
52181;DHT22;38158;53.338;6.514;2023-02-27T12:26:44;7.70;99.90
52181;DHT22;38158;53.338;6.514;2023-02-27T12:31:50;7.70;99.90
52181;DHT22;38158;53.338;6.514;2023-02-27T12:37:09;7.80;99.90
52181;DHT22;38158;53.338;6.514;2023-02-27T12:39:36;7.80;99.90
52181;DHT22;38158;53.338;6.514;2023-02-27T12:42:09;7.90;99.90
52181;DHT22;38158;53.338;6.514;2023-02-27T12:50:14;7.90;99.90
52181;DHT22;38158;53.338;6.514;2023-02-27T12:55:27;7.80;99.90
52181;DHT22;38158;53.338;6.514;2023-02-27T13:04:42;7.70;99.90
52181;DHT22;38158;53.338;6.514;2023-02-27T13:07:25;7.60;99.90
52181;DHT22;38158;53.338;6.514;2023-02-27T13:10:03;7.60;99.90
52181;DHT22;38158;53.338;6.514;2023-02-27T13:12:35;7.60;99.90
52181;DHT22;38158;53.338;6.514;2023-02-27T13:15:20;7.70;99.90
52181;DHT22;38158;53.338;6.514;2023-02-27T13:18:06;7.70;99.90
52181;DHT22;38158;53.338;6.514;2023-02-27T13:25:53;7.80;99.90
52181;DHT22;38158;53.338;6.514;2023-02-27T13:28:26;7.70;99.90
52181;DHT22;38158;53.338;6.514;2023-02-27T13:31:06;7.80;99.90
52181;DHT22;38158;53.338;6.514;2023-02-27T13:34:13;7.80;99.90
52181;DHT22;38158;53.338;6.514;2023-02-27T13:36:44;7.70;99.90
52181;DHT22;38158;53.338;6.514;2023-02-27T13:39:37;7.70;99.90
52181;DHT22;38158;53.338;6.514;2023-02-27T13:42:06;7.70;99.90
52181;DHT22;38158;53.338;6.514;2023-02-27T13:44:49;7.70;99.90
52181;DHT22;38158;53.338;6.514;2023-02-27T13:47:38;7.70;99.90
52181;DHT22;38158;53.338;6.514;2023-02-27T13:52:43;7.80;99.90
52181;DHT22;38158;53.338;6.514;2023-02-27T13:55:28;7.90;99.90
52181;DHT22;38158;53.338;6.514;2023-02-27T13:57:57;7.80;99.90
52181;DHT22;38158;53.338;6.514;2023-02-27T14:00:26;7.70;99.90
52181;DHT22;38158;53.338;6.514;2023-02-27T14:03:00;7.70;99.90
52181;DHT22;38158;53.338;6.514;2023-02-27T14:05:36;7.70;99.90
52181;DHT22;38158;53.338;6.514;2023-02-27T14:08:27;7.70;99.90
52181;DHT22;38158;53.338;6.514;2023-02-27T14:22:01;7.70;99.90
52181;DHT22;38158;53.338;6.514;2023-02-27T14:32:58;7.90;99.90
52181;DHT22;38158;53.338;6.514;2023-02-27T14:35:26;7.80;99.90
52181;DHT22;38158;53.338;6.514;2023-02-27T14:37:53;7.80;99.90
52181;DHT22;38158;53.338;6.514;2023-02-27T14:40:28;7.70;99.90
52181;DHT22;38158;53.338;6.514;2023-02-27T14:43:11;7.70;99.90
52181;DHT22;38158;53.338;6.514;2023-02-27T14:45:39;7.70;99.90
52181;DHT22;38158;53.338;6.514;2023-02-27T14:48:08;7.60;99.90
52181;DHT22;38158;53.338;6.514;2023-02-27T14:50:37;7.60;99.90
52181;DHT22;38158;53.338;6.514;2023-02-27T14:53:05;7.60;99.90
52181;DHT22;38158;53.338;6.514;2023-02-27T14:55:36;7.60;99.90
52181;DHT22;38158;53.338;6.514;2023-02-27T15:03:24;7.60;99.90
52181;DHT22;38158;53.338;6.514;2023-02-27T15:05:52;7.60;99.90
52181;DHT22;38158;53.338;6.514;2023-02-27T15:08:23;7.50;99.90
52181;DHT22;38158;53.338;6.514;2023-02-27T15:10:53;7.40;99.90
52181;DHT22;38158;53.338;6.514;2023-02-27T15:13:37;7.40;99.90
52181;DHT22;38158;53.338;6.514;2023-02-27T15:18:53;7.30;99.90
52181;DHT22;38158;53.338;6.514;2023-02-27T15:21:22;7.20;99.90
52181;DHT22;38158;53.338;6.514;2023-02-27T15:24:03;7.20;99.90
52181;DHT22;38158;53.338;6.514;2023-02-27T15:26:34;7.10;99.90
52181;DHT22;38158;53.338;6.514;2023-02-27T15:29:02;7.00;99.90
52181;DHT22;38158;53.338;6.514;2023-02-27T15:31:28;7.00;99.90
52181;DHT22;38158;53.338;6.514;2023-02-27T15:33:57;7.00;99.90
52181;DHT22;38158;53.338;6.514;2023-02-27T15:36:29;6.90;99.90
52181;DHT22;38158;53.338;6.514;2023-02-27T15:41:33;6.90;99.90
52181;DHT22;38158;53.338;6.514;2023-02-27T15:44:00;6.80;99.90
52181;DHT22;38158;53.338;6.514;2023-02-27T15:46:26;6.70;99.90
52181;DHT22;38158;53.338;6.514;2023-02-27T15:48:53;6.70;99.90
52181;DHT22;38158;53.338;6.514;2023-02-27T15:51:19;6.70;99.90
52181;DHT22;38158;53.338;6.514;2023-02-27T15:53:49;6.70;99.90
52181;DHT22;38158;53.338;6.514;2023-02-27T15:56:20;6.60;99.90
52181;DHT22;38158;53.338;6.514;2023-02-27T15:58:50;6.60;99.90
52181;DHT22;38158;53.338;6.514;2023-02-27T16:01:24;6.70;99.90
52181;DHT22;38158;53.338;6.514;2023-02-27T16:03:56;6.50;99.90
52181;DHT22;38158;53.338;6.514;2023-02-27T16:06:29;6.40;99.90
52181;DHT22;38158;53.338;6.514;2023-02-27T16:11:29;6.40;99.90
52181;DHT22;38158;53.338;6.514;2023-02-27T16:13:55;6.30;99.90
52181;DHT22;38158;53.338;6.514;2023-02-27T16:16:30;6.30;99.90
52181;DHT22;38158;53.338;6.514;2023-02-27T16:19:45;6.20;99.90
52181;DHT22;38158;53.338;6.514;2023-02-27T16:22:14;6.20;99.90
52181;DHT22;38158;53.338;6.514;2023-02-27T16:24:42;6.20;99.90
52181;DHT22;38158;53.338;6.514;2023-02-27T16:27:37;6.10;99.90
52181;DHT22;38158;53.338;6.514;2023-02-27T16:30:10;6.10;99.90
52181;DHT22;38158;53.338;6.514;2023-02-27T16:32:42;6.10;99.90
52181;DHT22;38158;53.338;6.514;2023-02-27T16:35:20;6.10;99.90
52181;DHT22;38158;53.338;6.514;2023-02-27T16:37:47;6.10;99.90
52181;DHT22;38158;53.338;6.514;2023-02-27T16:40:22;6.10;99.90
52181;DHT22;38158;53.338;6.514;2023-02-27T16:42:49;6.10;99.90
52181;DHT22;38158;53.338;6.514;2023-02-27T16:45:21;6.00;99.90
52181;DHT22;38158;53.338;6.514;2023-02-27T16:47:52;5.90;99.90
52181;DHT22;38158;53.338;6.514;2023-02-27T16:50:38;5.90;99.90
52181;DHT22;38158;53.338;6.514;2023-02-27T16:53:06;5.80;99.90
52181;DHT22;38158;53.338;6.514;2023-02-27T16:55:32;5.70;99.90
52181;DHT22;38158;53.338;6.514;2023-02-27T16:57:58;5.70;99.90
52181;DHT22;38158;53.338;6.514;2023-02-27T17:00:24;5.60;99.90
52181;DHT22;38158;53.338;6.514;2023-02-27T17:02:50;5.60;99.90
52181;DHT22;38158;53.338;6.514;2023-02-27T17:05:16;5.50;99.90
52181;DHT22;38158;53.338;6.514;2023-02-27T17:07:43;5.50;99.90
52181;DHT22;38158;53.338;6.514;2023-02-27T17:10:20;5.50;99.90
52181;DHT22;38158;53.338;6.514;2023-02-27T17:12:46;5.40;99.90
52181;DHT22;38158;53.338;6.514;2023-02-27T17:15:13;5.40;99.90
52181;DHT22;38158;53.338;6.514;2023-02-27T17:17:39;5.40;99.90
52181;DHT22;38158;53.338;6.514;2023-02-27T17:20:06;5.40;99.90
52181;DHT22;38158;53.338;6.514;2023-02-27T17:22:36;5.30;99.90
52181;DHT22;38158;53.338;6.514;2023-02-27T17:25:02;5.30;99.90
52181;DHT22;38158;53.338;6.514;2023-02-27T17:27:28;5.30;99.90
52181;DHT22;38158;53.338;6.514;2023-02-27T17:29:54;5.30;99.90
52181;DHT22;38158;53.338;6.514;2023-02-27T17:32:19;5.20;99.90
52181;DHT22;38158;53.338;6.514;2023-02-27T17:34:45;5.20;99.90
52181;DHT22;38158;53.338;6.514;2023-02-27T17:37:11;5.20;99.90
52181;DHT22;38158;53.338;6.514;2023-02-27T17:39:37;5.20;99.90
52181;DHT22;38158;53.338;6.514;2023-02-27T17:42:03;5.20;99.90
52181;DHT22;38158;53.338;6.514;2023-02-27T17:44:28;5.10;99.90
52181;DHT22;38158;53.338;6.514;2023-02-27T17:46:54;5.10;99.90
52181;DHT22;38158;53.338;6.514;2023-02-27T17:49:20;5.10;99.90
52181;DHT22;38158;53.338;6.514;2023-02-27T17:51:45;5.10;99.90
52181;DHT22;38158;53.338;6.514;2023-02-27T17:54:11;5.00;99.90
52181;DHT22;38158;53.338;6.514;2023-02-27T17:56:37;5.00;99.90
52181;DHT22;38158;53.338;6.514;2023-02-27T17:59:03;5.00;99.90
52181;DHT22;38158;53.338;6.514;2023-02-27T18:01:29;5.00;99.90
52181;DHT22;38158;53.338;6.514;2023-02-27T18:03:55;5.00;99.90
52181;DHT22;38158;53.338;6.514;2023-02-27T18:06:22;5.00;99.90
52181;DHT22;38158;53.338;6.514;2023-02-27T18:08:48;5.00;99.90
52181;DHT22;38158;53.338;6.514;2023-02-27T18:11:16;5.10;99.90
52181;DHT22;38158;53.338;6.514;2023-02-27T18:13:43;4.90;99.90
52181;DHT22;38158;53.338;6.514;2023-02-27T18:16:10;4.80;99.90
52181;DHT22;38158;53.338;6.514;2023-02-27T18:18:40;4.80;99.90
52181;DHT22;38158;53.338;6.514;2023-02-27T18:21:18;4.80;99.90
52181;DHT22;38158;53.338;6.514;2023-02-27T18:23:45;4.80;99.90
52181;DHT22;38158;53.338;6.514;2023-02-27T18:26:13;4.80;99.90
52181;DHT22;38158;53.338;6.514;2023-02-27T18:28:39;4.80;99.90
52181;DHT22;38158;53.338;6.514;2023-02-27T18:31:05;4.80;99.90
52181;DHT22;38158;53.338;6.514;2023-02-27T18:33:31;4.90;99.90
52181;DHT22;38158;53.338;6.514;2023-02-27T18:35:56;4.90;99.90
52181;DHT22;38158;53.338;6.514;2023-02-27T18:38:22;4.90;99.90
52181;DHT22;38158;53.338;6.514;2023-02-27T18:40:48;4.90;99.90
52181;DHT22;38158;53.338;6.514;2023-02-27T18:43:14;4.90;99.90
52181;DHT22;38158;53.338;6.514;2023-02-27T18:45:39;4.90;99.90
52181;DHT22;38158;53.338;6.514;2023-02-27T18:48:05;4.90;99.90
52181;DHT22;38158;53.338;6.514;2023-02-27T18:50:32;4.80;99.90
52181;DHT22;38158;53.338;6.514;2023-02-27T18:52:58;4.80;99.90
52181;DHT22;38158;53.338;6.514;2023-02-27T18:55:24;4.70;99.90
52181;DHT22;38158;53.338;6.514;2023-02-27T18:57:50;4.70;99.90
52181;DHT22;38158;53.338;6.514;2023-02-27T19:00:17;4.80;99.90
52181;DHT22;38158;53.338;6.514;2023-02-27T19:02:44;4.50;99.90
52181;DHT22;38158;53.338;6.514;2023-02-27T19:05:10;4.50;99.90